sensor_id;sensor_type;location;lat;lon;timestamp;temperature;humidity
23721;DHT22;42950;52.134;5.578;2023-06-10T00:01:54;20.90;99.90
23721;DHT22;42950;52.134;5.578;2023-06-10T00:04:24;20.90;99.90
23721;DHT22;42950;52.134;5.578;2023-06-10T00:06:50;20.90;99.90
23721;DHT22;42950;52.134;5.578;2023-06-10T00:09:17;20.80;99.90
23721;DHT22;42950;52.134;5.578;2023-06-10T00:11:44;20.80;99.90
23721;DHT22;42950;52.134;5.578;2023-06-10T00:14:10;20.80;99.90
23721;DHT22;42950;52.134;5.578;2023-06-10T00:16:36;20.80;99.90
23721;DHT22;42950;52.134;5.578;2023-06-10T00:19:02;20.70;99.90
23721;DHT22;42950;52.134;5.578;2023-06-10T00:21:30;20.70;99.90
23721;DHT22;42950;52.134;5.578;2023-06-10T00:23:56;20.60;99.90
23721;DHT22;42950;52.134;5.578;2023-06-10T00:26:22;20.60;99.90
23721;DHT22;42950;52.134;5.578;2023-06-10T00:28:48;20.70;99.90
23721;DHT22;42950;52.134;5.578;2023-06-10T00:31:14;20.60;99.90
23721;DHT22;42950;52.134;5.578;2023-06-10T00:33:39;20.60;99.90
23721;DHT22;42950;52.134;5.578;2023-06-10T00:36:08;20.60;99.90
23721;DHT22;42950;52.134;5.578;2023-06-10T00:38:34;20.60;99.90
23721;DHT22;42950;52.134;5.578;2023-06-10T00:41:01;20.50;99.90
23721;DHT22;42950;52.134;5.578;2023-06-10T00:43:27;20.50;99.90
23721;DHT22;42950;52.134;5.578;2023-06-10T00:45:53;20.50;99.90
23721;DHT22;42950;52.134;5.578;2023-06-10T00:48:19;20.40;99.90
23721;DHT22;42950;52.134;5.578;2023-06-10T00:50:46;20.40;99.90
23721;DHT22;42950;52.134;5.578;2023-06-10T00:53:12;20.40;99.90
23721;DHT22;42950;52.134;5.578;2023-06-10T00:55:38;20.40;99.90
23721;DHT22;42950;52.134;5.578;2023-06-10T00:58:04;20.30;99.90
23721;DHT22;42950;52.134;5.578;2023-06-10T01:00:30;20.30;99.90
23721;DHT22;42950;52.134;5.578;2023-06-10T01:02:55;20.30;99.90
23721;DHT22;42950;52.134;5.578;2023-06-10T01:05:23;20.30;99.90
23721;DHT22;42950;52.134;5.578;2023-06-10T01:08:03;20.20;99.90
23721;DHT22;42950;52.134;5.578;2023-06-10T01:13:36;20.10;99.90
23721;DHT22;42950;52.134;5.578;2023-06-10T01:16:03;20.00;99.90
23721;DHT22;42950;52.134;5.578;2023-06-10T01:18:30;20.00;99.90
23721;DHT22;42950;52.134;5.578;2023-06-10T01:20:56;20.00;99.90
23721;DHT22;42950;52.134;5.578;2023-06-10T01:23:23;20.00;99.90
23721;DHT22;42950;52.134;5.578;2023-06-10T01:26:07;20.00;99.90
23721;DHT22;42950;52.134;5.578;2023-06-10T01:28:49;20.10;99.90
23721;DHT22;42950;52.134;5.578;2023-06-10T01:31:51;20.00;99.90
23721;DHT22;42950;52.134;5.578;2023-06-10T01:34:18;20.00;99.90
23721;DHT22;42950;52.134;5.578;2023-06-10T01:36:47;19.90;99.90
23721;DHT22;42950;52.134;5.578;2023-06-10T01:39:15;19.90;99.90
23721;DHT22;42950;52.134;5.578;2023-06-10T01:41:45;19.90;99.90
23721;DHT22;42950;52.134;5.578;2023-06-10T01:44:20;19.90;99.90
23721;DHT22;42950;52.134;5.578;2023-06-10T01:46:48;19.90;99.90
23721;DHT22;42950;52.134;5.578;2023-06-10T01:49:13;19.80;99.90
23721;DHT22;42950;52.134;5.578;2023-06-10T01:51:39;19.80;99.90
23721;DHT22;42950;52.134;5.578;2023-06-10T01:54:05;19.80;99.90
23721;DHT22;42950;52.134;5.578;2023-06-10T01:56:33;19.80;99.90
23721;DHT22;42950;52.134;5.578;2023-06-10T01:58:59;19.70;99.90
23721;DHT22;42950;52.134;5.578;2023-06-10T02:01:25;19.70;99.90
23721;DHT22;42950;52.134;5.578;2023-06-10T02:03:53;19.70;99.90
23721;DHT22;42950;52.134;5.578;2023-06-10T02:06:19;19.70;99.90
23721;DHT22;42950;52.134;5.578;2023-06-10T02:08:45;19.60;99.90
23721;DHT22;42950;52.134;5.578;2023-06-10T02:11:11;19.60;99.90
23721;DHT22;42950;52.134;5.578;2023-06-10T02:13:38;19.60;99.90
23721;DHT22;42950;52.134;5.578;2023-06-10T02:16:04;19.60;99.90
23721;DHT22;42950;52.134;5.578;2023-06-10T02:18:31;19.60;99.90
23721;DHT22;42950;52.134;5.578;2023-06-10T02:20:57;19.60;99.90
23721;DHT22;42950;52.134;5.578;2023-06-10T02:23:23;19.60;99.90
23721;DHT22;42950;52.134;5.578;2023-06-10T02:25:49;19.50;99.90
23721;DHT22;42950;52.134;5.578;2023-06-10T02:28:15;19.50;99.90
23721;DHT22;42950;52.134;5.578;2023-06-10T02:30:41;19.50;99.90
23721;DHT22;42950;52.134;5.578;2023-06-10T02:33:07;19.50;99.90
23721;DHT22;42950;52.134;5.578;2023-06-10T02:35:37;19.50;99.90
23721;DHT22;42950;52.134;5.578;2023-06-10T02:38:03;19.40;99.90
23721;DHT22;42950;52.134;5.578;2023-06-10T02:40:31;19.40;99.90
23721;DHT22;42950;52.134;5.578;2023-06-10T02:42:57;19.40;99.90
23721;DHT22;42950;52.134;5.578;2023-06-10T02:45:25;19.40;99.90
23721;DHT22;42950;52.134;5.578;2023-06-10T02:47:50;19.30;99.90
23721;DHT22;42950;52.134;5.578;2023-06-10T02:50:16;19.20;99.90
23721;DHT22;42950;52.134;5.578;2023-06-10T02:52:42;19.20;99.90
23721;DHT22;42950;52.134;5.578;2023-06-10T02:55:08;19.20;99.90
23721;DHT22;42950;52.134;5.578;2023-06-10T02:57:34;19.10;99.90
23721;DHT22;42950;52.134;5.578;2023-06-10T03:00:01;19.10;99.90
23721;DHT22;42950;52.134;5.578;2023-06-10T03:02:29;19.00;99.90
23721;DHT22;42950;52.134;5.578;2023-06-10T03:04:57;19.00;99.90
23721;DHT22;42950;52.134;5.578;2023-06-10T03:07:23;19.00;99.90
23721;DHT22;42950;52.134;5.578;2023-06-10T03:09:50;19.00;99.90
23721;DHT22;42950;52.134;5.578;2023-06-10T03:12:15;18.90;99.90
23721;DHT22;42950;52.134;5.578;2023-06-10T03:14:41;18.90;99.90
23721;DHT22;42950;52.134;5.578;2023-06-10T03:17:07;18.90;99.90
23721;DHT22;42950;52.134;5.578;2023-06-10T03:19:34;18.90;99.90
23721;DHT22;42950;52.134;5.578;2023-06-10T03:22:16;18.80;99.90
23721;DHT22;42950;52.134;5.578;2023-06-10T03:24:42;18.80;99.90
23721;DHT22;42950;52.134;5.578;2023-06-10T03:27:13;18.80;99.90
23721;DHT22;42950;52.134;5.578;2023-06-10T03:29:40;18.80;99.90
23721;DHT22;42950;52.134;5.578;2023-06-10T03:32:06;18.70;99.90
23721;DHT22;42950;52.134;5.578;2023-06-10T03:34:32;18.70;99.90
23721;DHT22;42950;52.134;5.578;2023-06-10T03:36:57;18.70;99.90
23721;DHT22;42950;52.134;5.578;2023-06-10T03:39:23;18.60;99.90
23721;DHT22;42950;52.134;5.578;2023-06-10T03:41:50;18.60;99.90
23721;DHT22;42950;52.134;5.578;2023-06-10T03:44:15;18.50;99.90
23721;DHT22;42950;52.134;5.578;2023-06-10T03:46:42;18.60;99.90
23721;DHT22;42950;52.134;5.578;2023-06-10T03:49:08;18.50;99.90
23721;DHT22;42950;52.134;5.578;2023-06-10T03:51:35;18.50;99.90
23721;DHT22;42950;52.134;5.578;2023-06-10T03:54:01;18.50;99.90
23721;DHT22;42950;52.134;5.578;2023-06-10T03:56:28;18.60;99.90
23721;DHT22;42950;52.134;5.578;2023-06-10T03:58:54;18.50;99.90
23721;DHT22;42950;52.134;5.578;2023-06-10T04:01:24;18.50;99.90
23721;DHT22;42950;52.134;5.578;2023-06-10T04:03:50;18.50;99.90
23721;DHT22;42950;52.134;5.578;2023-06-10T04:06:16;18.40;99.90
23721;DHT22;42950;52.134;5.578;2023-06-10T04:08:42;18.50;99.90
23721;DHT22;42950;52.134;5.578;2023-06-10T04:11:08;18.50;99.90
23721;DHT22;42950;52.134;5.578;2023-06-10T04:13:34;18.50;99.90
23721;DHT22;42950;52.134;5.578;2023-06-10T04:16:00;18.50;99.90
23721;DHT22;42950;52.134;5.578;2023-06-10T04:18:26;18.50;99.90
23721;DHT22;42950;52.134;5.578;2023-06-10T04:20:51;18.50;99.90
23721;DHT22;42950;52.134;5.578;2023-06-10T04:23:18;18.50;99.90
23721;DHT22;42950;52.134;5.578;2023-06-10T04:25:44;18.50;99.90
23721;DHT22;42950;52.134;5.578;2023-06-10T04:28:09;18.50;99.90
23721;DHT22;42950;52.134;5.578;2023-06-10T04:30:35;18.50;99.90
23721;DHT22;42950;52.134;5.578;2023-06-10T04:33:01;18.50;99.90
23721;DHT22;42950;52.134;5.578;2023-06-10T04:35:26;18.50;99.90
23721;DHT22;42950;52.134;5.578;2023-06-10T04:37:53;18.50;99.90
23721;DHT22;42950;52.134;5.578;2023-06-10T04:40:19;18.50;99.90
23721;DHT22;42950;52.134;5.578;2023-06-10T04:42:44;18.50;99.90
23721;DHT22;42950;52.134;5.578;2023-06-10T04:45:12;18.50;99.90
23721;DHT22;42950;52.134;5.578;2023-06-10T04:47:40;18.60;99.90
23721;DHT22;42950;52.134;5.578;2023-06-10T04:50:06;18.60;99.90
23721;DHT22;42950;52.134;5.578;2023-06-10T04:52:33;18.60;99.90
23721;DHT22;42950;52.134;5.578;2023-06-10T04:55:00;18.70;99.90
23721;DHT22;42950;52.134;5.578;2023-06-10T04:57:25;18.70;99.90
23721;DHT22;42950;52.134;5.578;2023-06-10T04:59:52;18.70;99.90
23721;DHT22;42950;52.134;5.578;2023-06-10T05:02:17;18.70;99.90
23721;DHT22;42950;52.134;5.578;2023-06-10T05:04:43;18.80;99.90
23721;DHT22;42950;52.134;5.578;2023-06-10T05:07:09;18.80;99.90
23721;DHT22;42950;52.134;5.578;2023-06-10T05:09:34;18.80;99.90
23721;DHT22;42950;52.134;5.578;2023-06-10T05:12:00;18.90;99.90
23721;DHT22;42950;52.134;5.578;2023-06-10T05:14:26;18.90;99.90
23721;DHT22;42950;52.134;5.578;2023-06-10T05:16:53;19.00;99.90
23721;DHT22;42950;52.134;5.578;2023-06-10T05:19:20;19.00;99.90
23721;DHT22;42950;52.134;5.578;2023-06-10T05:21:46;19.10;99.90
23721;DHT22;42950;52.134;5.578;2023-06-10T05:24:12;19.10;99.90
23721;DHT22;42950;52.134;5.578;2023-06-10T05:26:37;19.10;99.90
23721;DHT22;42950;52.134;5.578;2023-06-10T05:29:04;19.10;99.90
23721;DHT22;42950;52.134;5.578;2023-06-10T05:31:30;19.20;99.90
23721;DHT22;42950;52.134;5.578;2023-06-10T05:33:56;19.20;99.90
23721;DHT22;42950;52.134;5.578;2023-06-10T05:36:21;19.20;99.90
23721;DHT22;42950;52.134;5.578;2023-06-10T05:38:48;19.20;99.90
23721;DHT22;42950;52.134;5.578;2023-06-10T05:41:16;19.30;99.90
23721;DHT22;42950;52.134;5.578;2023-06-10T05:43:42;19.30;99.90
23721;DHT22;42950;52.134;5.578;2023-06-10T05:46:08;19.40;99.90
23721;DHT22;42950;52.134;5.578;2023-06-10T05:48:35;19.40;99.90
23721;DHT22;42950;52.134;5.578;2023-06-10T05:51:01;19.40;99.90
23721;DHT22;42950;52.134;5.578;2023-06-10T05:53:27;19.50;99.90
23721;DHT22;42950;52.134;5.578;2023-06-10T05:55:53;19.50;99.90
23721;DHT22;42950;52.134;5.578;2023-06-10T05:58:24;19.60;99.90
23721;DHT22;42950;52.134;5.578;2023-06-10T06:00:50;19.70;99.90
23721;DHT22;42950;52.134;5.578;2023-06-10T06:03:17;19.70;99.90
23721;DHT22;42950;52.134;5.578;2023-06-10T06:05:42;19.80;99.90
23721;DHT22;42950;52.134;5.578;2023-06-10T06:08:09;19.80;99.90
23721;DHT22;42950;52.134;5.578;2023-06-10T06:10:34;19.90;99.90
23721;DHT22;42950;52.134;5.578;2023-06-10T06:13:01;19.90;99.90
23721;DHT22;42950;52.134;5.578;2023-06-10T06:15:26;20.00;99.90
23721;DHT22;42950;52.134;5.578;2023-06-10T06:17:53;20.00;99.90
23721;DHT22;42950;52.134;5.578;2023-06-10T06:20:20;20.10;99.90
23721;DHT22;42950;52.134;5.578;2023-06-10T06:22:45;20.20;99.90
23721;DHT22;42950;52.134;5.578;2023-06-10T06:25:11;20.20;99.90
23721;DHT22;42950;52.134;5.578;2023-06-10T06:27:37;20.20;99.90
23721;DHT22;42950;52.134;5.578;2023-06-10T06:30:03;20.30;99.90
23721;DHT22;42950;52.134;5.578;2023-06-10T06:32:28;20.40;99.90
23721;DHT22;42950;52.134;5.578;2023-06-10T06:34:54;20.50;99.90
23721;DHT22;42950;52.134;5.578;2023-06-10T06:37:24;20.50;99.90
23721;DHT22;42950;52.134;5.578;2023-06-10T06:39:51;20.60;99.90
23721;DHT22;42950;52.134;5.578;2023-06-10T06:42:17;20.70;99.90
23721;DHT22;42950;52.134;5.578;2023-06-10T06:44:44;20.80;99.90
23721;DHT22;42950;52.134;5.578;2023-06-10T06:47:09;20.90;99.90
23721;DHT22;42950;52.134;5.578;2023-06-10T06:49:36;21.10;99.90
23721;DHT22;42950;52.134;5.578;2023-06-10T06:52:04;21.10;99.90
23721;DHT22;42950;52.134;5.578;2023-06-10T06:54:30;21.20;99.90
23721;DHT22;42950;52.134;5.578;2023-06-10T06:56:56;21.30;99.90
23721;DHT22;42950;52.134;5.578;2023-06-10T06:59:22;21.40;99.90
23721;DHT22;42950;52.134;5.578;2023-06-10T07:01:49;21.50;99.90
23721;DHT22;42950;52.134;5.578;2023-06-10T07:04:15;21.60;99.90
23721;DHT22;42950;52.134;5.578;2023-06-10T07:06:41;21.70;99.90
23721;DHT22;42950;52.134;5.578;2023-06-10T07:09:10;21.90;99.90
23721;DHT22;42950;52.134;5.578;2023-06-10T07:11:36;21.90;99.90
23721;DHT22;42950;52.134;5.578;2023-06-10T07:14:03;22.00;99.90
23721;DHT22;42950;52.134;5.578;2023-06-10T07:16:30;22.10;99.90
23721;DHT22;42950;52.134;5.578;2023-06-10T07:18:57;22.30;99.90
23721;DHT22;42950;52.134;5.578;2023-06-10T07:21:25;22.30;99.90
23721;DHT22;42950;52.134;5.578;2023-06-10T07:23:51;22.40;99.90
23721;DHT22;42950;52.134;5.578;2023-06-10T07:26:21;22.60;99.90
23721;DHT22;42950;52.134;5.578;2023-06-10T07:28:47;22.70;99.90
23721;DHT22;42950;52.134;5.578;2023-06-10T07:31:12;22.80;99.90
23721;DHT22;42950;52.134;5.578;2023-06-10T07:33:40;22.90;99.90
23721;DHT22;42950;52.134;5.578;2023-06-10T07:36:07;23.00;99.90
23721;DHT22;42950;52.134;5.578;2023-06-10T07:38:32;23.10;99.90
23721;DHT22;42950;52.134;5.578;2023-06-10T07:41:01;23.30;99.90
23721;DHT22;42950;52.134;5.578;2023-06-10T07:43:27;23.40;99.90
23721;DHT22;42950;52.134;5.578;2023-06-10T07:45:52;23.60;99.90
23721;DHT22;42950;52.134;5.578;2023-06-10T07:48:18;23.60;99.90
23721;DHT22;42950;52.134;5.578;2023-06-10T07:50:44;23.80;99.90
23721;DHT22;42950;52.134;5.578;2023-06-10T07:53:10;23.90;99.90
23721;DHT22;42950;52.134;5.578;2023-06-10T07:55:38;24.00;99.90
23721;DHT22;42950;52.134;5.578;2023-06-10T07:58:04;24.20;99.90
23721;DHT22;42950;52.134;5.578;2023-06-10T09:51:14;31.20;98.20
23721;DHT22;42950;52.134;5.578;2023-06-10T09:53:42;31.30;96.80
23721;DHT22;42950;52.134;5.578;2023-06-10T09:56:08;31.50;97.80
23721;DHT22;42950;52.134;5.578;2023-06-10T09:58:40;31.70;97.50
23721;DHT22;42950;52.134;5.578;2023-06-10T10:01:09;32.10;95.10
23721;DHT22;42950;52.134;5.578;2023-06-10T10:03:50;32.00;94.20
23721;DHT22;42950;52.134;5.578;2023-06-10T10:06:17;32.30;95.20
23721;DHT22;42950;52.134;5.578;2023-06-10T10:08:43;32.40;94.30
23721;DHT22;42950;52.134;5.578;2023-06-10T10:11:09;32.50;92.90
23721;DHT22;42950;52.134;5.578;2023-06-10T10:13:37;32.70;93.30
23721;DHT22;42950;52.134;5.578;2023-06-10T10:16:19;32.80;91.60
23721;DHT22;42950;52.134;5.578;2023-06-10T10:18:54;32.90;91.70
23721;DHT22;42950;52.134;5.578;2023-06-10T10:21:23;32.90;89.80
23721;DHT22;42950;52.134;5.578;2023-06-10T10:24:00;32.90;89.40
23721;DHT22;42950;52.134;5.578;2023-06-10T10:26:27;33.20;90.00
23721;DHT22;42950;52.134;5.578;2023-06-10T10:29:16;33.50;86.20
23721;DHT22;42950;52.134;5.578;2023-06-10T10:31:50;33.40;85.30
23721;DHT22;42950;52.134;5.578;2023-06-10T10:34:18;33.50;82.40
23721;DHT22;42950;52.134;5.578;2023-06-10T10:36:46;33.50;83.00
23721;DHT22;42950;52.134;5.578;2023-06-10T10:39:14;33.80;81.70
23721;DHT22;42950;52.134;5.578;2023-06-10T10:41:41;33.70;78.90
23721;DHT22;42950;52.134;5.578;2023-06-10T10:44:08;33.60;80.40
23721;DHT22;42950;52.134;5.578;2023-06-10T10:46:48;33.60;77.40
23721;DHT22;42950;52.134;5.578;2023-06-10T10:49:15;33.70;75.00
23721;DHT22;42950;52.134;5.578;2023-06-10T10:51:57;33.40;73.80
23721;DHT22;42950;52.134;5.578;2023-06-10T10:54:36;33.10;74.20
23721;DHT22;42950;52.134;5.578;2023-06-10T11:02:43;33.90;74.80
23721;DHT22;42950;52.134;5.578;2023-06-10T11:05:10;34.00;73.50
23721;DHT22;42950;52.134;5.578;2023-06-10T11:07:37;34.30;72.70
23721;DHT22;42950;52.134;5.578;2023-06-10T11:10:12;34.40;71.30
23721;DHT22;42950;52.134;5.578;2023-06-10T11:15:31;34.70;71.00
23721;DHT22;42950;52.134;5.578;2023-06-10T11:18:14;34.90;70.30
23721;DHT22;42950;52.134;5.578;2023-06-10T11:29:00;34.60;68.80
23721;DHT22;42950;52.134;5.578;2023-06-10T11:33:57;34.70;67.40
23721;DHT22;42950;52.134;5.578;2023-06-10T11:36:24;34.70;65.80
23721;DHT22;42950;52.134;5.578;2023-06-10T11:38:55;34.60;65.90
23721;DHT22;42950;52.134;5.578;2023-06-10T11:41:21;34.90;65.70
23721;DHT22;42950;52.134;5.578;2023-06-10T11:43:47;35.00;66.70
23721;DHT22;42950;52.134;5.578;2023-06-10T11:46:14;34.90;66.80
23721;DHT22;42950;52.134;5.578;2023-06-10T11:48:51;34.90;64.70
23721;DHT22;42950;52.134;5.578;2023-06-10T11:51:17;34.90;65.20
23721;DHT22;42950;52.134;5.578;2023-06-10T11:53:47;34.90;63.00
23721;DHT22;42950;52.134;5.578;2023-06-10T11:56:13;34.80;63.10
23721;DHT22;42950;52.134;5.578;2023-06-10T11:58:43;34.60;63.10
23721;DHT22;42950;52.134;5.578;2023-06-10T12:01:10;34.90;63.40
23721;DHT22;42950;52.134;5.578;2023-06-10T12:03:37;34.80;64.60
23721;DHT22;42950;52.134;5.578;2023-06-10T12:06:06;34.90;65.50
23721;DHT22;42950;52.134;5.578;2023-06-10T12:08:32;35.10;64.10
23721;DHT22;42950;52.134;5.578;2023-06-10T12:10:58;35.20;64.30
23721;DHT22;42950;52.134;5.578;2023-06-10T12:13:28;35.50;64.20
23721;DHT22;42950;52.134;5.578;2023-06-10T12:15:54;35.50;61.70
23721;DHT22;42950;52.134;5.578;2023-06-10T12:18:22;35.30;61.70
23721;DHT22;42950;52.134;5.578;2023-06-10T12:20:48;34.00;63.40
23721;DHT22;42950;52.134;5.578;2023-06-10T12:23:16;33.90;62.60
23721;DHT22;42950;52.134;5.578;2023-06-10T12:25:55;34.40;65.10
23721;DHT22;42950;52.134;5.578;2023-06-10T12:28:25;34.20;63.90
23721;DHT22;42950;52.134;5.578;2023-06-10T12:30:50;34.50;64.50
23721;DHT22;42950;52.134;5.578;2023-06-10T12:33:21;34.90;64.60
23721;DHT22;42950;52.134;5.578;2023-06-10T12:35:51;35.30;62.90
23721;DHT22;42950;52.134;5.578;2023-06-10T12:38:22;35.40;63.60
23721;DHT22;42950;52.134;5.578;2023-06-10T12:40:48;35.40;60.60
23721;DHT22;42950;52.134;5.578;2023-06-10T12:43:22;35.20;59.70
23721;DHT22;42950;52.134;5.578;2023-06-10T12:45:48;35.40;62.60
23721;DHT22;42950;52.134;5.578;2023-06-10T12:48:22;35.60;61.60
23721;DHT22;42950;52.134;5.578;2023-06-10T12:50:53;35.50;61.20
23721;DHT22;42950;52.134;5.578;2023-06-10T12:53:22;35.80;60.60
23721;DHT22;42950;52.134;5.578;2023-06-10T12:55:52;36.10;62.00
23721;DHT22;42950;52.134;5.578;2023-06-10T12:58:22;35.50;59.70
23721;DHT22;42950;52.134;5.578;2023-06-10T13:00:48;34.20;58.80
23721;DHT22;42950;52.134;5.578;2023-06-10T13:03:14;34.10;63.60
23721;DHT22;42950;52.134;5.578;2023-06-10T13:05:41;34.60;61.30
23721;DHT22;42950;52.134;5.578;2023-06-10T13:08:08;35.10;63.20
23721;DHT22;42950;52.134;5.578;2023-06-10T13:10:36;35.40;60.40
23721;DHT22;42950;52.134;5.578;2023-06-10T13:13:02;35.60;57.60
23721;DHT22;42950;52.134;5.578;2023-06-10T13:15:31;35.40;56.70
23721;DHT22;42950;52.134;5.578;2023-06-10T13:17:57;34.90;57.90
23721;DHT22;42950;52.134;5.578;2023-06-10T13:20:24;34.20;59.50
23721;DHT22;42950;52.134;5.578;2023-06-10T13:22:50;34.50;60.90
23721;DHT22;42950;52.134;5.578;2023-06-10T13:25:16;34.90;61.70
23721;DHT22;42950;52.134;5.578;2023-06-10T13:27:42;34.90;57.90
23721;DHT22;42950;52.134;5.578;2023-06-10T13:30:09;34.90;60.70
23721;DHT22;42950;52.134;5.578;2023-06-10T13:32:36;35.20;60.80
23721;DHT22;42950;52.134;5.578;2023-06-10T13:35:02;35.70;60.20
23721;DHT22;42950;52.134;5.578;2023-06-10T13:37:28;35.60;57.30
23721;DHT22;42950;52.134;5.578;2023-06-10T13:39:54;34.60;57.10
23721;DHT22;42950;52.134;5.578;2023-06-10T13:42:21;34.50;58.90
23721;DHT22;42950;52.134;5.578;2023-06-10T13:44:47;34.80;58.50
23721;DHT22;42950;52.134;5.578;2023-06-10T13:47:14;35.00;61.50
23721;DHT22;42950;52.134;5.578;2023-06-10T13:49:40;35.60;59.20
23721;DHT22;42950;52.134;5.578;2023-06-10T13:52:06;36.10;59.90
23721;DHT22;42950;52.134;5.578;2023-06-10T13:54:32;36.30;59.80
23721;DHT22;42950;52.134;5.578;2023-06-10T13:56:58;36.40;58.70
23721;DHT22;42950;52.134;5.578;2023-06-10T13:59:25;36.50;58.90
23721;DHT22;42950;52.134;5.578;2023-06-10T14:01:51;36.50;58.50
23721;DHT22;42950;52.134;5.578;2023-06-10T14:04:17;36.50;57.00
23721;DHT22;42950;52.134;5.578;2023-06-10T14:06:44;36.80;59.00
23721;DHT22;42950;52.134;5.578;2023-06-10T14:09:12;37.00;57.70
23721;DHT22;42950;52.134;5.578;2023-06-10T14:11:38;36.80;58.40
23721;DHT22;42950;52.134;5.578;2023-06-10T14:14:03;36.70;58.20
23721;DHT22;42950;52.134;5.578;2023-06-10T14:16:30;36.70;55.30
23721;DHT22;42950;52.134;5.578;2023-06-10T14:18:56;35.60;57.10
23721;DHT22;42950;52.134;5.578;2023-06-10T14:21:21;35.30;58.20
23721;DHT22;42950;52.134;5.578;2023-06-10T14:23:47;35.30;57.60
23721;DHT22;42950;52.134;5.578;2023-06-10T14:26:15;35.60;58.40
23721;DHT22;42950;52.134;5.578;2023-06-10T14:28:41;35.90;57.70
23721;DHT22;42950;52.134;5.578;2023-06-10T14:31:06;36.30;55.30
23721;DHT22;42950;52.134;5.578;2023-06-10T14:33:33;35.80;53.60
23721;DHT22;42950;52.134;5.578;2023-06-10T14:35:59;35.30;56.80
23721;DHT22;42950;52.134;5.578;2023-06-10T14:38:25;35.60;57.70
23721;DHT22;42950;52.134;5.578;2023-06-10T14:40:51;35.90;56.20
23721;DHT22;42950;52.134;5.578;2023-06-10T14:43:17;35.90;56.80
23721;DHT22;42950;52.134;5.578;2023-06-10T14:45:43;35.90;56.10
23721;DHT22;42950;52.134;5.578;2023-06-10T14:48:10;36.00;56.80
23721;DHT22;42950;52.134;5.578;2023-06-10T14:50:36;36.20;56.90
23721;DHT22;42950;52.134;5.578;2023-06-10T14:53:02;36.40;56.30
23721;DHT22;42950;52.134;5.578;2023-06-10T14:55:28;35.80;55.20
23721;DHT22;42950;52.134;5.578;2023-06-10T14:57:54;35.30;55.00
23721;DHT22;42950;52.134;5.578;2023-06-10T15:00:20;35.40;57.20
23721;DHT22;42950;52.134;5.578;2023-06-10T15:02:48;35.50;57.00
23721;DHT22;42950;52.134;5.578;2023-06-10T15:05:14;35.90;54.80
23721;DHT22;42950;52.134;5.578;2023-06-10T15:07:41;35.90;56.10
23721;DHT22;42950;52.134;5.578;2023-06-10T15:10:08;36.00;56.50
23721;DHT22;42950;52.134;5.578;2023-06-10T15:12:35;36.30;54.60
23721;DHT22;42950;52.134;5.578;2023-06-10T15:15:01;36.30;54.40
23721;DHT22;42950;52.134;5.578;2023-06-10T15:17:27;36.30;54.00
23721;DHT22;42950;52.134;5.578;2023-06-10T15:19:53;36.10;54.00
23721;DHT22;42950;52.134;5.578;2023-06-10T15:22:18;35.50;53.90
23721;DHT22;42950;52.134;5.578;2023-06-10T15:24:44;34.50;55.40
23721;DHT22;42950;52.134;5.578;2023-06-10T15:27:10;34.30;57.20
23721;DHT22;42950;52.134;5.578;2023-06-10T15:29:35;34.80;57.20
23721;DHT22;42950;52.134;5.578;2023-06-10T15:32:01;35.20;56.50
23721;DHT22;42950;52.134;5.578;2023-06-10T15:34:33;35.50;54.50
23721;DHT22;42950;52.134;5.578;2023-06-10T15:37:06;35.40;53.20
23721;DHT22;42950;52.134;5.578;2023-06-10T15:39:32;35.00;54.00
23721;DHT22;42950;52.134;5.578;2023-06-10T15:42:01;34.90;55.70
23721;DHT22;42950;52.134;5.578;2023-06-10T15:44:28;34.10;54.40
23721;DHT22;42950;52.134;5.578;2023-06-10T15:46:53;33.70;55.40
23721;DHT22;42950;52.134;5.578;2023-06-10T15:49:19;34.00;56.30
23721;DHT22;42950;52.134;5.578;2023-06-10T15:51:45;34.60;56.50
23721;DHT22;42950;52.134;5.578;2023-06-10T15:54:10;35.10;56.90
23721;DHT22;42950;52.134;5.578;2023-06-10T15:56:36;35.40;55.50
23721;DHT22;42950;52.134;5.578;2023-06-10T15:59:02;35.50;54.70
23721;DHT22;42950;52.134;5.578;2023-06-10T16:01:28;35.70;55.00
23721;DHT22;42950;52.134;5.578;2023-06-10T16:04:01;35.80;55.10
23721;DHT22;42950;52.134;5.578;2023-06-10T16:06:27;35.80;53.50
23721;DHT22;42950;52.134;5.578;2023-06-10T16:08:55;35.80;53.70
23721;DHT22;42950;52.134;5.578;2023-06-10T16:11:22;35.10;52.50
23721;DHT22;42950;52.134;5.578;2023-06-10T16:13:48;34.70;54.10
23721;DHT22;42950;52.134;5.578;2023-06-10T16:16:18;35.00;54.50
23721;DHT22;42950;52.134;5.578;2023-06-10T16:18:43;35.20;54.10
23721;DHT22;42950;52.134;5.578;2023-06-10T16:21:12;35.40;55.40
23721;DHT22;42950;52.134;5.578;2023-06-10T16:23:39;35.80;54.40
23721;DHT22;42950;52.134;5.578;2023-06-10T16:26:09;35.90;52.90
23721;DHT22;42950;52.134;5.578;2023-06-10T16:28:38;35.90;53.10
23721;DHT22;42950;52.134;5.578;2023-06-10T16:31:04;36.00;54.40
23721;DHT22;42950;52.134;5.578;2023-06-10T16:33:47;35.80;52.50
23721;DHT22;42950;52.134;5.578;2023-06-10T16:36:15;35.10;54.40
23721;DHT22;42950;52.134;5.578;2023-06-10T16:38:42;34.80;55.30
23721;DHT22;42950;52.134;5.578;2023-06-10T16:41:08;35.10;56.30
23721;DHT22;42950;52.134;5.578;2023-06-10T16:43:33;35.30;54.90
23721;DHT22;42950;52.134;5.578;2023-06-10T16:45:59;35.50;54.90
23721;DHT22;42950;52.134;5.578;2023-06-10T16:48:24;35.40;55.60
23721;DHT22;42950;52.134;5.578;2023-06-10T16:50:50;35.40;55.00
23721;DHT22;42950;52.134;5.578;2023-06-10T16:53:16;35.50;55.90
23721;DHT22;42950;52.134;5.578;2023-06-10T16:55:42;35.40;55.30
23721;DHT22;42950;52.134;5.578;2023-06-10T16:58:08;35.40;55.30
23721;DHT22;42950;52.134;5.578;2023-06-10T17:00:36;35.50;54.90
23721;DHT22;42950;52.134;5.578;2023-06-10T17:03:01;35.30;54.50
23721;DHT22;42950;52.134;5.578;2023-06-10T17:05:28;35.40;54.40
23721;DHT22;42950;52.134;5.578;2023-06-10T17:07:53;35.10;53.80
23721;DHT22;42950;52.134;5.578;2023-06-10T17:10:19;34.90;55.00
23721;DHT22;42950;52.134;5.578;2023-06-10T17:12:45;35.00;55.60
23721;DHT22;42950;52.134;5.578;2023-06-10T17:15:12;34.90;55.10
23721;DHT22;42950;52.134;5.578;2023-06-10T17:17:38;34.90;55.20
23721;DHT22;42950;52.134;5.578;2023-06-10T17:20:06;34.70;54.70
23721;DHT22;42950;52.134;5.578;2023-06-10T17:22:32;34.60;55.10
23721;DHT22;42950;52.134;5.578;2023-06-10T17:24:59;34.40;55.10
23721;DHT22;42950;52.134;5.578;2023-06-10T17:27:24;34.30;55.70
23721;DHT22;42950;52.134;5.578;2023-06-10T17:29:51;34.20;56.10
23721;DHT22;42950;52.134;5.578;2023-06-10T17:32:17;34.30;55.60
23721;DHT22;42950;52.134;5.578;2023-06-10T17:34:42;34.10;55.10
23721;DHT22;42950;52.134;5.578;2023-06-10T17:37:08;34.10;54.70
23721;DHT22;42950;52.134;5.578;2023-06-10T17:39:33;33.90;55.70
23721;DHT22;42950;52.134;5.578;2023-06-10T17:41:59;34.00;55.60
23721;DHT22;42950;52.134;5.578;2023-06-10T17:44:25;33.90;55.30